sensor_id;sensor_type;location;lat;lon;timestamp;P1;durP1;ratioP1;P2;durP2;ratioP2
61356;SDS011;47227;46.752;23.576;2024-02-26T00:01:16;24.00;;;15.00;;
61356;SDS011;47227;46.752;23.576;2024-02-26T00:03:54;24.80;;;15.10;;
61356;SDS011;47227;46.752;23.576;2024-02-26T00:06:27;25.70;;;15.00;;
61356;SDS011;47227;46.752;23.576;2024-02-26T00:08:57;23.10;;;13.80;;
61356;SDS011;47227;46.752;23.576;2024-02-26T00:11:26;21.90;;;14.40;;
61356;SDS011;47227;46.752;23.576;2024-02-26T00:13:55;23.70;;;15.50;;
61356;SDS011;47227;46.752;23.576;2024-02-26T00:16:23;24.80;;;15.10;;
61356;SDS011;47227;46.752;23.576;2024-02-26T00:18:52;28.90;;;15.90;;
61356;SDS011;47227;46.752;23.576;2024-02-26T00:21:21;31.20;;;18.70;;
61356;SDS011;47227;46.752;23.576;2024-02-26T00:23:49;26.70;;;15.20;;
61356;SDS011;47227;46.752;23.576;2024-02-26T00:26:21;23.80;;;15.30;;
61356;SDS011;47227;46.752;23.576;2024-02-26T00:28:50;28.70;;;16.70;;
61356;SDS011;47227;46.752;23.576;2024-02-26T00:31:18;25.40;;;16.00;;
61356;SDS011;47227;46.752;23.576;2024-02-26T00:33:46;27.60;;;16.60;;
61356;SDS011;47227;46.752;23.576;2024-02-26T00:36:15;26.90;;;16.60;;
61356;SDS011;47227;46.752;23.576;2024-02-26T00:38:44;23.50;;;16.10;;
61356;SDS011;47227;46.752;23.576;2024-02-26T00:41:14;26.90;;;16.20;;
61356;SDS011;47227;46.752;23.576;2024-02-26T00:43:42;25.00;;;15.50;;
61356;SDS011;47227;46.752;23.576;2024-02-26T00:46:11;24.90;;;15.60;;
61356;SDS011;47227;46.752;23.576;2024-02-26T00:48:39;23.40;;;16.40;;
61356;SDS011;47227;46.752;23.576;2024-02-26T00:51:08;25.70;;;15.90;;
61356;SDS011;47227;46.752;23.576;2024-02-26T00:53:36;25.10;;;16.30;;
61356;SDS011;47227;46.752;23.576;2024-02-26T00:56:05;28.20;;;17.40;;
61356;SDS011;47227;46.752;23.576;2024-02-26T00:58:34;28.00;;;16.70;;
61356;SDS011;47227;46.752;23.576;2024-02-26T01:01:03;32.60;;;17.50;;
61356;SDS011;47227;46.752;23.576;2024-02-26T01:03:31;29.50;;;17.50;;
61356;SDS011;47227;46.752;23.576;2024-02-26T01:06:00;30.40;;;18.40;;
61356;SDS011;47227;46.752;23.576;2024-02-26T01:08:28;24.60;;;15.70;;
61356;SDS011;47227;46.752;23.576;2024-02-26T01:10:57;27.70;;;16.90;;
61356;SDS011;47227;46.752;23.576;2024-02-26T01:13:25;26.00;;;16.30;;
61356;SDS011;47227;46.752;23.576;2024-02-26T01:15:54;31.40;;;17.80;;
61356;SDS011;47227;46.752;23.576;2024-02-26T01:18:22;33.00;;;18.20;;
61356;SDS011;47227;46.752;23.576;2024-02-26T01:20:51;38.60;;;18.10;;
61356;SDS011;47227;46.752;23.576;2024-02-26T01:23:22;28.30;;;17.20;;
61356;SDS011;47227;46.752;23.576;2024-02-26T01:25:50;29.90;;;17.90;;
61356;SDS011;47227;46.752;23.576;2024-02-26T01:28:19;28.70;;;17.60;;
61356;SDS011;47227;46.752;23.576;2024-02-26T01:30:48;29.90;;;17.30;;
61356;SDS011;47227;46.752;23.576;2024-02-26T01:33:16;27.20;;;16.70;;
61356;SDS011;47227;46.752;23.576;2024-02-26T01:35:45;26.50;;;17.60;;
61356;SDS011;47227;46.752;23.576;2024-02-26T01:38:14;25.90;;;17.30;;
61356;SDS011;47227;46.752;23.576;2024-02-26T01:40:43;26.20;;;16.80;;
61356;SDS011;47227;46.752;23.576;2024-02-26T01:43:11;30.60;;;17.40;;
61356;SDS011;47227;46.752;23.576;2024-02-26T01:45:40;26.20;;;16.20;;
61356;SDS011;47227;46.752;23.576;2024-02-26T01:48:08;21.60;;;14.50;;
61356;SDS011;47227;46.752;23.576;2024-02-26T01:50:39;22.50;;;13.50;;
61356;SDS011;47227;46.752;23.576;2024-02-26T01:53:08;21.70;;;14.10;;
61356;SDS011;47227;46.752;23.576;2024-02-26T01:55:38;21.40;;;13.50;;
61356;SDS011;47227;46.752;23.576;2024-02-26T01:58:07;20.10;;;12.40;;
61356;SDS011;47227;46.752;23.576;2024-02-26T02:00:36;19.80;;;13.40;;
61356;SDS011;47227;46.752;23.576;2024-02-26T02:03:06;20.90;;;14.50;;
61356;SDS011;47227;46.752;23.576;2024-02-26T02:05:34;24.50;;;14.70;;
61356;SDS011;47227;46.752;23.576;2024-02-26T02:08:10;21.70;;;13.80;;
61356;SDS011;47227;46.752;23.576;2024-02-26T02:10:42;19.60;;;13.10;;
61356;SDS011;47227;46.752;23.576;2024-02-26T02:13:11;20.10;;;13.40;;
61356;SDS011;47227;46.752;23.576;2024-02-26T02:15:39;21.40;;;14.50;;
61356;SDS011;47227;46.752;23.576;2024-02-26T02:18:08;25.20;;;14.80;;
61356;SDS011;47227;46.752;23.576;2024-02-26T02:20:36;24.30;;;15.50;;
61356;SDS011;47227;46.752;23.576;2024-02-26T02:23:05;25.30;;;14.50;;
61356;SDS011;47227;46.752;23.576;2024-02-26T02:25:33;22.30;;;13.90;;
61356;SDS011;47227;46.752;23.576;2024-02-26T02:28:02;22.50;;;13.40;;
61356;SDS011;47227;46.752;23.576;2024-02-26T02:30:31;21.30;;;13.20;;
61356;SDS011;47227;46.752;23.576;2024-02-26T02:33:01;21.70;;;12.70;;
61356;SDS011;47227;46.752;23.576;2024-02-26T02:35:30;20.80;;;13.80;;
61356;SDS011;47227;46.752;23.576;2024-02-26T02:37:58;20.80;;;13.10;;
61356;SDS011;47227;46.752;23.576;2024-02-26T02:40:27;21.10;;;13.60;;
61356;SDS011;47227;46.752;23.576;2024-02-26T02:42:55;21.30;;;14.00;;
61356;SDS011;47227;46.752;23.576;2024-02-26T02:45:23;20.30;;;14.10;;
61356;SDS011;47227;46.752;23.576;2024-02-26T02:47:52;21.40;;;13.70;;
61356;SDS011;47227;46.752;23.576;2024-02-26T02:50:21;23.20;;;13.50;;
61356;SDS011;47227;46.752;23.576;2024-02-26T02:52:49;20.30;;;14.00;;
61356;SDS011;47227;46.752;23.576;2024-02-26T02:55:18;23.20;;;14.70;;
61356;SDS011;47227;46.752;23.576;2024-02-26T02:57:46;22.10;;;14.60;;
61356;SDS011;47227;46.752;23.576;2024-02-26T03:00:14;23.00;;;15.30;;
61356;SDS011;47227;46.752;23.576;2024-02-26T03:02:43;23.10;;;15.50;;
61356;SDS011;47227;46.752;23.576;2024-02-26T03:05:13;24.00;;;14.50;;
61356;SDS011;47227;46.752;23.576;2024-02-26T03:07:42;23.70;;;14.30;;
61356;SDS011;47227;46.752;23.576;2024-02-26T03:10:10;23.10;;;14.70;;
61356;SDS011;47227;46.752;23.576;2024-02-26T03:12:39;25.50;;;16.00;;
61356;SDS011;47227;46.752;23.576;2024-02-26T03:15:07;23.40;;;15.60;;
61356;SDS011;47227;46.752;23.576;2024-02-26T03:17:36;28.40;;;16.60;;
61356;SDS011;47227;46.752;23.576;2024-02-26T03:20:05;25.40;;;16.00;;
61356;SDS011;47227;46.752;23.576;2024-02-26T03:22:38;24.10;;;15.70;;
61356;SDS011;47227;46.752;23.576;2024-02-26T03:25:07;23.00;;;15.40;;
61356;SDS011;47227;46.752;23.576;2024-02-26T03:27:36;25.40;;;15.20;;
61356;SDS011;47227;46.752;23.576;2024-02-26T03:30:04;20.20;;;13.80;;
61356;SDS011;47227;46.752;23.576;2024-02-26T03:32:34;22.80;;;13.40;;
61356;SDS011;47227;46.752;23.576;2024-02-26T03:35:03;18.50;;;12.40;;
61356;SDS011;47227;46.752;23.576;2024-02-26T03:37:32;21.40;;;13.60;;
61356;SDS011;47227;46.752;23.576;2024-02-26T03:40:00;17.30;;;12.90;;
61356;SDS011;47227;46.752;23.576;2024-02-26T03:42:29;18.50;;;12.20;;
61356;SDS011;47227;46.752;23.576;2024-02-26T03:44:57;19.60;;;12.40;;
61356;SDS011;47227;46.752;23.576;2024-02-26T03:47:26;18.70;;;13.30;;
61356;SDS011;47227;46.752;23.576;2024-02-26T03:49:54;20.40;;;14.10;;
61356;SDS011;47227;46.752;23.576;2024-02-26T03:52:23;18.30;;;12.80;;
61356;SDS011;47227;46.752;23.576;2024-02-26T03:54:51;18.10;;;12.50;;
61356;SDS011;47227;46.752;23.576;2024-02-26T03:57:20;23.10;;;13.50;;
61356;SDS011;47227;46.752;23.576;2024-02-26T03:59:48;22.20;;;12.70;;
61356;SDS011;47227;46.752;23.576;2024-02-26T04:02:17;18.00;;;12.90;;
61356;SDS011;47227;46.752;23.576;2024-02-26T04:04:47;19.30;;;12.80;;
61356;SDS011;47227;46.752;23.576;2024-02-26T04:07:16;18.10;;;12.70;;
61356;SDS011;47227;46.752;23.576;2024-02-26T04:09:44;19.60;;;12.80;;
61356;SDS011;47227;46.752;23.576;2024-02-26T04:12:13;19.30;;;12.40;;
61356;SDS011;47227;46.752;23.576;2024-02-26T04:14:42;17.50;;;12.00;;
61356;SDS011;47227;46.752;23.576;2024-02-26T04:17:11;15.50;;;11.60;;
61356;SDS011;47227;46.752;23.576;2024-02-26T04:19:39;17.50;;;12.40;;
61356;SDS011;47227;46.752;23.576;2024-02-26T04:22:07;17.40;;;12.00;;
61356;SDS011;47227;46.752;23.576;2024-02-26T04:24:38;18.00;;;11.70;;
61356;SDS011;47227;46.752;23.576;2024-02-26T04:27:06;16.90;;;11.10;;
61356;SDS011;47227;46.752;23.576;2024-02-26T04:29:35;22.60;;;11.80;;
61356;SDS011;47227;46.752;23.576;2024-02-26T04:32:03;15.40;;;11.90;;
61356;SDS011;47227;46.752;23.576;2024-02-26T04:34:32;19.40;;;11.70;;
61356;SDS011;47227;46.752;23.576;2024-02-26T04:37:01;18.50;;;12.10;;
61356;SDS011;47227;46.752;23.576;2024-02-26T04:39:29;19.50;;;13.10;;
61356;SDS011;47227;46.752;23.576;2024-02-26T04:41:58;22.30;;;12.70;;
61356;SDS011;47227;46.752;23.576;2024-02-26T04:44:26;21.30;;;13.20;;
61356;SDS011;47227;46.752;23.576;2024-02-26T04:46:55;19.10;;;13.00;;
61356;SDS011;47227;46.752;23.576;2024-02-26T04:49:23;21.30;;;13.20;;
61356;SDS011;47227;46.752;23.576;2024-02-26T04:51:51;25.80;;;15.30;;
61356;SDS011;47227;46.752;23.576;2024-02-26T04:54:20;24.90;;;14.80;;
61356;SDS011;47227;46.752;23.576;2024-02-26T04:56:49;23.60;;;14.90;;
61356;SDS011;47227;46.752;23.576;2024-02-26T04:59:17;23.10;;;14.20;;
61356;SDS011;47227;46.752;23.576;2024-02-26T05:01:46;20.80;;;14.10;;
61356;SDS011;47227;46.752;23.576;2024-02-26T05:04:15;23.80;;;13.80;;
61356;SDS011;47227;46.752;23.576;2024-02-26T05:06:43;21.10;;;13.20;;
61356;SDS011;47227;46.752;23.576;2024-02-26T05:09:12;24.70;;;14.20;;
61356;SDS011;47227;46.752;23.576;2024-02-26T05:11:41;24.60;;;13.30;;
61356;SDS011;47227;46.752;23.576;2024-02-26T05:14:10;19.20;;;11.60;;
61356;SDS011;47227;46.752;23.576;2024-02-26T05:16:38;18.60;;;11.50;;
61356;SDS011;47227;46.752;23.576;2024-02-26T05:19:07;22.40;;;11.30;;
61356;SDS011;47227;46.752;23.576;2024-02-26T05:21:35;18.50;;;11.40;;
61356;SDS011;47227;46.752;23.576;2024-02-26T05:24:04;15.70;;;10.50;;
61356;SDS011;47227;46.752;23.576;2024-02-26T05:26:32;14.40;;;10.60;;
61356;SDS011;47227;46.752;23.576;2024-02-26T05:29:01;19.10;;;11.50;;
61356;SDS011;47227;46.752;23.576;2024-02-26T05:31:29;16.60;;;11.10;;
61356;SDS011;47227;46.752;23.576;2024-02-26T05:33:58;25.60;;;12.30;;
61356;SDS011;47227;46.752;23.576;2024-02-26T05:36:27;15.30;;;10.40;;
61356;SDS011;47227;46.752;23.576;2024-02-26T05:39:01;19.10;;;12.70;;
61356;SDS011;47227;46.752;23.576;2024-02-26T05:41:31;25.90;;;13.80;;
61356;SDS011;47227;46.752;23.576;2024-02-26T05:44:00;19.80;;;13.40;;
61356;SDS011;47227;46.752;23.576;2024-02-26T05:46:29;27.50;;;15.50;;
61356;SDS011;47227;46.752;23.576;2024-02-26T05:48:57;21.70;;;14.70;;
61356;SDS011;47227;46.752;23.576;2024-02-26T05:51:26;23.60;;;12.00;;
61356;SDS011;47227;46.752;23.576;2024-02-26T05:53:55;24.50;;;14.80;;
61356;SDS011;47227;46.752;23.576;2024-02-26T05:56:23;17.70;;;12.60;;
61356;SDS011;47227;46.752;23.576;2024-02-26T05:58:51;25.00;;;15.90;;
61356;SDS011;47227;46.752;23.576;2024-02-26T06:01:21;24.90;;;15.00;;
61356;SDS011;47227;46.752;23.576;2024-02-26T06:03:49;20.90;;;13.40;;
61356;SDS011;47227;46.752;23.576;2024-02-26T06:06:18;19.10;;;12.30;;
61356;SDS011;47227;46.752;23.576;2024-02-26T06:08:47;21.90;;;13.90;;
61356;SDS011;47227;46.752;23.576;2024-02-26T06:11:15;18.60;;;12.40;;
61356;SDS011;47227;46.752;23.576;2024-02-26T06:13:44;22.40;;;14.50;;
61356;SDS011;47227;46.752;23.576;2024-02-26T06:16:12;22.60;;;15.10;;
61356;SDS011;47227;46.752;23.576;2024-02-26T06:18:41;34.50;;;15.40;;
61356;SDS011;47227;46.752;23.576;2024-02-26T06:21:10;24.60;;;15.40;;
61356;SDS011;47227;46.752;23.576;2024-02-26T06:23:39;33.40;;;16.80;;
61356;SDS011;47227;46.752;23.576;2024-02-26T06:26:10;26.50;;;15.50;;
61356;SDS011;47227;46.752;23.576;2024-02-26T06:28:39;28.60;;;15.10;;
61356;SDS011;47227;46.752;23.576;2024-02-26T06:31:09;25.40;;;14.50;;
61356;SDS011;47227;46.752;23.576;2024-02-26T06:33:37;30.00;;;18.30;;
61356;SDS011;47227;46.752;23.576;2024-02-26T06:36:06;61.00;;;31.40;;
61356;SDS011;47227;46.752;23.576;2024-02-26T06:38:35;57.20;;;28.80;;
61356;SDS011;47227;46.752;23.576;2024-02-26T06:41:04;66.90;;;33.90;;
61356;SDS011;47227;46.752;23.576;2024-02-26T06:43:32;59.20;;;30.80;;
61356;SDS011;47227;46.752;23.576;2024-02-26T06:46:00;49.20;;;28.40;;
61356;SDS011;47227;46.752;23.576;2024-02-26T06:48:29;42.90;;;23.70;;
61356;SDS011;47227;46.752;23.576;2024-02-26T06:50:58;37.90;;;20.50;;
61356;SDS011;47227;46.752;23.576;2024-02-26T06:53:27;51.80;;;33.40;;
61356;SDS011;47227;46.752;23.576;2024-02-26T06:55:55;53.90;;;30.60;;
61356;SDS011;47227;46.752;23.576;2024-02-26T06:58:24;45.00;;;24.20;;
61356;SDS011;47227;46.752;23.576;2024-02-26T07:00:52;37.60;;;21.10;;
61356;SDS011;47227;46.752;23.576;2024-02-26T07:03:20;32.90;;;20.80;;
61356;SDS011;47227;46.752;23.576;2024-02-26T07:05:51;38.60;;;19.40;;
61356;SDS011;47227;46.752;23.576;2024-02-26T07:08:20;40.10;;;19.00;;
61356;SDS011;47227;46.752;23.576;2024-02-26T07:10:49;36.40;;;17.50;;
61356;SDS011;47227;46.752;23.576;2024-02-26T07:13:17;32.00;;;17.20;;
61356;SDS011;47227;46.752;23.576;2024-02-26T07:15:46;27.00;;;16.60;;
61356;SDS011;47227;46.752;23.576;2024-02-26T07:18:14;31.90;;;16.30;;
61356;SDS011;47227;46.752;23.576;2024-02-26T07:20:43;32.60;;;15.80;;
61356;SDS011;47227;46.752;23.576;2024-02-26T07:23:12;29.80;;;16.40;;
61356;SDS011;47227;46.752;23.576;2024-02-26T07:25:40;30.40;;;19.80;;
61356;SDS011;47227;46.752;23.576;2024-02-26T07:28:12;34.80;;;19.70;;
61356;SDS011;47227;46.752;23.576;2024-02-26T07:30:40;32.50;;;18.30;;
61356;SDS011;47227;46.752;23.576;2024-02-26T07:33:09;37.90;;;19.40;;
61356;SDS011;47227;46.752;23.576;2024-02-26T07:35:38;30.60;;;18.60;;
61356;SDS011;47227;46.752;23.576;2024-02-26T07:38:06;67.20;;;21.10;;
61356;SDS011;47227;46.752;23.576;2024-02-26T07:40:46;67.10;;;22.20;;
61356;SDS011;47227;46.752;23.576;2024-02-26T07:43:26;46.30;;;19.20;;
61356;SDS011;47227;46.752;23.576;2024-02-26T07:45:55;62.80;;;21.00;;
61356;SDS011;47227;46.752;23.576;2024-02-26T07:48:23;54.70;;;22.00;;
61356;SDS011;47227;46.752;23.576;2024-02-26T07:50:52;42.60;;;21.80;;
61356;SDS011;47227;46.752;23.576;2024-02-26T07:53:21;45.90;;;23.90;;
61356;SDS011;47227;46.752;23.576;2024-02-26T07:55:49;45.40;;;25.20;;
61356;SDS011;47227;46.752;23.576;2024-02-26T07:58:18;46.00;;;25.30;;
61356;SDS011;47227;46.752;23.576;2024-02-26T08:00:46;42.80;;;25.60;;
61356;SDS011;47227;46.752;23.576;2024-02-26T08:03:14;38.70;;;21.20;;
61356;SDS011;47227;46.752;23.576;2024-02-26T08:05:44;51.70;;;25.30;;
61356;SDS011;47227;46.752;23.576;2024-02-26T08:08:13;40.10;;;19.90;;
61356;SDS011;47227;46.752;23.576;2024-02-26T08:10:41;33.70;;;19.60;;
61356;SDS011;47227;46.752;23.576;2024-02-26T08:13:10;36.70;;;19.30;;
61356;SDS011;47227;46.752;23.576;2024-02-26T08:15:38;34.10;;;18.30;;
61356;SDS011;47227;46.752;23.576;2024-02-26T08:18:06;36.00;;;17.90;;
61356;SDS011;47227;46.752;23.576;2024-02-26T08:20:35;48.70;;;23.90;;
61356;SDS011;47227;46.752;23.576;2024-02-26T08:23:05;63.20;;;33.20;;
61356;SDS011;47227;46.752;23.576;2024-02-26T08:25:33;36.70;;;19.30;;
61356;SDS011;47227;46.752;23.576;2024-02-26T08:28:02;33.10;;;16.30;;
61356;SDS011;47227;46.752;23.576;2024-02-26T08:30:31;23.20;;;13.60;;
61356;SDS011;47227;46.752;23.576;2024-02-26T08:32:59;27.80;;;13.30;;
61356;SDS011;47227;46.752;23.576;2024-02-26T08:35:28;20.10;;;12.10;;
61356;SDS011;47227;46.752;23.576;2024-02-26T08:37:57;26.30;;;13.40;;
61356;SDS011;47227;46.752;23.576;2024-02-26T08:40:25;25.30;;;11.60;;
61356;SDS011;47227;46.752;23.576;2024-02-26T08:42:54;26.80;;;13.50;;
61356;SDS011;47227;46.752;23.576;2024-02-26T08:45:23;21.70;;;12.60;;
61356;SDS011;47227;46.752;23.576;2024-02-26T08:47:55;20.50;;;12.10;;
61356;SDS011;47227;46.752;23.576;2024-02-26T08:50:24;22.60;;;12.40;;
61356;SDS011;47227;46.752;23.576;2024-02-26T08:52:52;25.80;;;13.90;;
61356;SDS011;47227;46.752;23.576;2024-02-26T08:55:21;30.80;;;17.90;;
61356;SDS011;47227;46.752;23.576;2024-02-26T08:57:49;33.90;;;17.90;;
61356;SDS011;47227;46.752;23.576;2024-02-26T09:00:18;35.20;;;18.10;;
61356;SDS011;47227;46.752;23.576;2024-02-26T09:02:49;53.90;;;18.60;;
61356;SDS011;47227;46.752;23.576;2024-02-26T09:05:18;30.70;;;17.80;;
61356;SDS011;47227;46.752;23.576;2024-02-26T09:07:46;34.60;;;17.80;;
61356;SDS011;47227;46.752;23.576;2024-02-26T09:10:15;27.80;;;17.40;;
61356;SDS011;47227;46.752;23.576;2024-02-26T09:12:43;39.50;;;18.10;;
61356;SDS011;47227;46.752;23.576;2024-02-26T09:15:12;39.40;;;18.50;;
61356;SDS011;47227;46.752;23.576;2024-02-26T09:17:41;28.20;;;17.20;;
61356;SDS011;47227;46.752;23.576;2024-02-26T09:20:10;31.60;;;17.90;;
61356;SDS011;47227;46.752;23.576;2024-02-26T09:22:39;28.50;;;15.90;;
61356;SDS011;47227;46.752;23.576;2024-02-26T09:25:07;28.20;;;15.30;;
61356;SDS011;47227;46.752;23.576;2024-02-26T09:27:36;44.20;;;16.70;;
61356;SDS011;47227;46.752;23.576;2024-02-26T09:30:13;32.70;;;15.90;;
61356;SDS011;47227;46.752;23.576;2024-02-26T09:32:45;26.70;;;15.60;;
61356;SDS011;47227;46.752;23.576;2024-02-26T09:35:16;26.40;;;14.50;;
61356;SDS011;47227;46.752;23.576;2024-02-26T09:37:44;22.90;;;14.20;;
61356;SDS011;47227;46.752;23.576;2024-02-26T09:40:13;27.10;;;14.60;;
61356;SDS011;47227;46.752;23.576;2024-02-26T09:42:43;21.30;;;12.70;;
61356;SDS011;47227;46.752;23.576;2024-02-26T09:45:17;19.70;;;12.30;;
61356;SDS011;47227;46.752;23.576;2024-02-26T09:47:48;19.80;;;12.70;;
61356;SDS011;47227;46.752;23.576;2024-02-26T09:50:20;20.70;;;11.90;;
61356;SDS011;47227;46.752;23.576;2024-02-26T09:52:51;20.50;;;12.60;;
61356;SDS011;47227;46.752;23.576;2024-02-26T09:55:21;16.60;;;12.20;;
61356;SDS011;47227;46.752;23.576;2024-02-26T09:57:51;23.40;;;13.60;;
61356;SDS011;47227;46.752;23.576;2024-02-26T10:00:20;16.40;;;9.30;;
61356;SDS011;47227;46.752;23.576;2024-02-26T10:02:50;16.90;;;8.40;;
61356;SDS011;47227;46.752;23.576;2024-02-26T10:05:20;17.40;;;11.60;;
61356;SDS011;47227;46.752;23.576;2024-02-26T10:07:50;11.40;;;8.30;;
61356;SDS011;47227;46.752;23.576;2024-02-26T10:10:20;10.50;;;7.20;;
61356;SDS011;47227;46.752;23.576;2024-02-26T10:12:49;11.10;;;6.80;;
61356;SDS011;47227;46.752;23.576;2024-02-26T10:15:18;9.90;;;7.10;;
61356;SDS011;47227;46.752;23.576;2024-02-26T10:17:46;11.90;;;6.80;;
61356;SDS011;47227;46.752;23.576;2024-02-26T10:20:16;15.90;;;7.00;;
61356;SDS011;47227;46.752;23.576;2024-02-26T10:22:46;15.40;;;6.60;;
61356;SDS011;47227;46.752;23.576;2024-02-26T10:25:15;10.00;;;6.90;;
61356;SDS011;47227;46.752;23.576;2024-02-26T10:27:45;8.60;;;5.10;;
61356;SDS011;47227;46.752;23.576;2024-02-26T10:32:49;6.70;;;2.20;;
61356;SDS011;47227;46.752;23.576;2024-02-26T10:35:19;3.50;;;2.30;;
61356;SDS011;47227;46.752;23.576;2024-02-26T10:37:51;5.10;;;2.60;;
61356;SDS011;47227;46.752;23.576;2024-02-26T10:40:20;2.50;;;2.20;;
61356;SDS011;47227;46.752;23.576;2024-02-26T10:42:49;3.20;;;2.70;;
61356;SDS011;47227;46.752;23.576;2024-02-26T10:45:18;6.20;;;3.00;;
61356;SDS011;47227;46.752;23.576;2024-02-26T10:47:47;5.40;;;2.70;;
61356;SDS011;47227;46.752;23.576;2024-02-26T10:50:16;4.50;;;2.60;;
61356;SDS011;47227;46.752;23.576;2024-02-26T10:52:45;4.00;;;2.80;;
61356;SDS011;47227;46.752;23.576;2024-02-26T10:55:16;2.80;;;2.30;;
61356;SDS011;47227;46.752;23.576;2024-02-26T10:57:50;5.50;;;2.80;;
61356;SDS011;47227;46.752;23.576;2024-02-26T11:00:20;8.10;;;2.70;;
61356;SDS011;47227;46.752;23.576;2024-02-26T11:02:49;8.90;;;3.10;;
61356;SDS011;47227;46.752;23.576;2024-02-26T11:05:19;3.50;;;2.90;;
61356;SDS011;47227;46.752;23.576;2024-02-26T11:07:48;8.80;;;3.40;;
61356;SDS011;47227;46.752;23.576;2024-02-26T11:10:18;8.90;;;3.60;;
61356;SDS011;47227;46.752;23.576;2024-02-26T11:12:47;6.80;;;3.50;;
61356;SDS011;47227;46.752;23.576;2024-02-26T11:15:17;6.40;;;3.00;;
61356;SDS011;47227;46.752;23.576;2024-02-26T11:17:47;7.50;;;3.40;;
61356;SDS011;47227;46.752;23.576;2024-02-26T11:20:16;7.90;;;3.40;;
61356;SDS011;47227;46.752;23.576;2024-02-26T11:22:47;11.60;;;3.50;;
61356;SDS011;47227;46.752;23.576;2024-02-26T11:25:16;6.90;;;3.00;;
61356;SDS011;47227;46.752;23.576;2024-02-26T11:27:47;5.70;;;3.20;;
61356;SDS011;47227;46.752;23.576;2024-02-26T11:30:20;6.80;;;3.10;;
61356;SDS011;47227;46.752;23.576;2024-02-26T11:32:50;3.80;;;2.60;;
61356;SDS011;47227;46.752;23.576;2024-02-26T11:35:20;5.40;;;3.10;;
61356;SDS011;47227;46.752;23.576;2024-02-26T11:37:55;5.50;;;3.10;;
61356;SDS011;47227;46.752;23.576;2024-02-26T11:40:25;6.20;;;3.10;;
61356;SDS011;47227;46.752;23.576;2024-02-26T11:42:54;7.90;;;3.70;;
61356;SDS011;47227;46.752;23.576;2024-02-26T11:48:16;9.70;;;3.70;;
61356;SDS011;47227;46.752;23.576;2024-02-26T11:50:49;14.00;;;5.20;;
61356;SDS011;47227;46.752;23.576;2024-02-26T11:53:22;8.20;;;4.40;;
61356;SDS011;47227;46.752;23.576;2024-02-26T11:58:41;9.90;;;5.10;;
61356;SDS011;47227;46.752;23.576;2024-02-26T12:04:11;8.40;;;4.60;;
61356;SDS011;47227;46.752;23.576;2024-02-26T12:06:43;8.00;;;5.30;;
61356;SDS011;47227;46.752;23.576;2024-02-26T12:09:30;6.60;;;4.40;;
61356;SDS011;47227;46.752;23.576;2024-02-26T12:12:04;9.20;;;4.20;;
61356;SDS011;47227;46.752;23.576;2024-02-26T12:14:39;9.30;;;5.00;;
61356;SDS011;47227;46.752;23.576;2024-02-26T12:17:19;6.80;;;4.60;;
61356;SDS011;47227;46.752;23.576;2024-02-26T12:19:49;5.70;;;4.40;;
61356;SDS011;47227;46.752;23.576;2024-02-26T12:22:19;9.50;;;4.90;;
61356;SDS011;47227;46.752;23.576;2024-02-26T12:24:48;6.30;;;5.00;;
61356;SDS011;47227;46.752;23.576;2024-02-26T12:27:26;6.10;;;3.50;;
61356;SDS011;47227;46.752;23.576;2024-02-26T12:29:55;5.60;;;3.80;;
61356;SDS011;47227;46.752;23.576;2024-02-26T12:32:24;7.80;;;3.80;;
61356;SDS011;47227;46.752;23.576;2024-02-26T12:34:53;5.80;;;4.10;;
61356;SDS011;47227;46.752;23.576;2024-02-26T12:37:21;8.60;;;4.30;;
61356;SDS011;47227;46.752;23.576;2024-02-26T12:39:50;9.20;;;4.80;;
61356;SDS011;47227;46.752;23.576;2024-02-26T12:42:18;14.00;;;6.50;;
61356;SDS011;47227;46.752;23.576;2024-02-26T12:44:49;7.10;;;5.20;;
61356;SDS011;47227;46.752;23.576;2024-02-26T12:47:18;20.30;;;7.20;;
61356;SDS011;47227;46.752;23.576;2024-02-26T12:49:47;8.40;;;5.80;;
61356;SDS011;47227;46.752;23.576;2024-02-26T12:52:17;8.40;;;5.30;;
61356;SDS011;47227;46.752;23.576;2024-02-26T12:54:46;14.10;;;6.10;;
61356;SDS011;47227;46.752;23.576;2024-02-26T12:57:14;6.10;;;4.90;;
61356;SDS011;47227;46.752;23.576;2024-02-26T12:59:44;7.20;;;4.90;;
61356;SDS011;47227;46.752;23.576;2024-02-26T13:02:13;10.70;;;4.90;;
61356;SDS011;47227;46.752;23.576;2024-02-26T13:04:42;8.10;;;4.60;;
61356;SDS011;47227;46.752;23.576;2024-02-26T13:07:12;11.70;;;4.60;;
61356;SDS011;47227;46.752;23.576;2024-02-26T13:09:41;8.30;;;4.30;;
61356;SDS011;47227;46.752;23.576;2024-02-26T13:12:10;6.40;;;4.50;;
61356;SDS011;47227;46.752;23.576;2024-02-26T13:14:41;6.00;;;4.30;;
61356;SDS011;47227;46.752;23.576;2024-02-26T13:17:09;8.10;;;4.00;;
61356;SDS011;47227;46.752;23.576;2024-02-26T13:19:48;14.30;;;5.00;;
61356;SDS011;47227;46.752;23.576;2024-02-26T13:22:17;5.70;;;4.10;;
61356;SDS011;47227;46.752;23.576;2024-02-26T13:24:55;7.20;;;4.00;;
61356;SDS011;47227;46.752;23.576;2024-02-26T13:27:25;9.40;;;3.70;;
61356;SDS011;47227;46.752;23.576;2024-02-26T13:32:36;5.60;;;4.30;;
61356;SDS011;47227;46.752;23.576;2024-02-26T13:35:06;7.60;;;4.10;;
61356;SDS011;47227;46.752;23.576;2024-02-26T13:37:36;8.70;;;4.50;;
61356;SDS011;47227;46.752;23.576;2024-02-26T13:40:09;9.00;;;5.20;;
61356;SDS011;47227;46.752;23.576;2024-02-26T13:42:39;16.10;;;5.10;;
61356;SDS011;47227;46.752;23.576;2024-02-26T13:45:08;7.20;;;4.90;;
61356;SDS011;47227;46.752;23.576;2024-02-26T13:47:37;11.50;;;6.30;;
61356;SDS011;47227;46.752;23.576;2024-02-26T13:50:05;13.50;;;5.20;;
61356;SDS011;47227;46.752;23.576;2024-02-26T13:52:34;8.10;;;5.20;;
61356;SDS011;47227;46.752;23.576;2024-02-26T13:55:03;11.20;;;5.20;;
61356;SDS011;47227;46.752;23.576;2024-02-26T13:57:31;7.10;;;5.40;;
61356;SDS011;47227;46.752;23.576;2024-02-26T14:00:00;10.80;;;6.20;;
61356;SDS011;47227;46.752;23.576;2024-02-26T14:02:38;12.00;;;5.80;;
61356;SDS011;47227;46.752;23.576;2024-02-26T14:05:07;12.00;;;5.20;;
61356;SDS011;47227;46.752;23.576;2024-02-26T14:07:36;19.70;;;5.50;;
61356;SDS011;47227;46.752;23.576;2024-02-26T14:10:05;15.30;;;5.20;;
61356;SDS011;47227;46.752;23.576;2024-02-26T14:12:34;9.80;;;5.10;;
61356;SDS011;47227;46.752;23.576;2024-02-26T14:15:03;6.30;;;4.60;;
61356;SDS011;47227;46.752;23.576;2024-02-26T14:17:33;7.80;;;5.00;;
61356;SDS011;47227;46.752;23.576;2024-02-26T14:20:02;8.80;;;5.70;;
61356;SDS011;47227;46.752;23.576;2024-02-26T14:22:32;6.50;;;4.90;;
61356;SDS011;47227;46.752;23.576;2024-02-26T14:25:00;9.20;;;5.70;;
61356;SDS011;47227;46.752;23.576;2024-02-26T14:27:28;6.90;;;5.10;;
61356;SDS011;47227;46.752;23.576;2024-02-26T14:29:57;5.60;;;5.10;;
61356;SDS011;47227;46.752;23.576;2024-02-26T14:32:25;7.50;;;5.00;;
61356;SDS011;47227;46.752;23.576;2024-02-26T14:34:56;9.30;;;5.30;;
61356;SDS011;47227;46.752;23.576;2024-02-26T14:37:24;7.90;;;5.10;;
61356;SDS011;47227;46.752;23.576;2024-02-26T14:39:53;7.10;;;5.10;;
61356;SDS011;47227;46.752;23.576;2024-02-26T14:42:21;9.00;;;5.10;;